createdAt,value
2019-01-03T16:08:09.438Z,1034.63
2019-01-03T16:09:09.238Z,1034.66
2019-01-03T16:10:09.804Z,1034.64
2019-01-03T16:11:09.334Z,1034.66
2019-01-03T16:12:09.394Z,1034.70
2019-01-03T16:13:09.454Z,1034.69
2019-01-03T16:14:09.505Z,1034.69
2019-01-03T16:15:09.554Z,1034.73
2019-01-03T16:16:09.618Z,1034.70
2019-01-03T16:17:09.666Z,1034.71
2019-01-03T16:18:09.730Z,1034.72
2019-01-03T16:19:09.786Z,1034.73
2019-01-03T16:20:09.840Z,1034.71
2019-01-03T16:21:09.898Z,1034.68
2019-01-03T16:22:09.954Z,1034.72
2019-01-03T16:23:10.018Z,1034.67
2019-01-03T16:24:10.079Z,1034.72
2019-01-03T16:25:10.126Z,1034.73
2019-01-03T16:26:10.186Z,1034.74
2019-01-03T16:27:10.366Z,1034.75
2019-01-03T16:28:10.310Z,1034.79
2019-01-03T16:29:10.370Z,1034.78
2019-01-03T16:30:10.422Z,1034.78
2019-01-03T16:31:10.478Z,1034.76
2019-01-03T16:32:10.539Z,1034.78
2019-01-03T16:33:10.606Z,1034.79
2019-01-03T16:34:10.667Z,1034.81
2019-01-03T16:35:10.714Z,1034.83
2019-01-03T16:36:10.775Z,1034.85
2019-01-03T16:37:10.910Z,1034.87
2019-01-03T16:38:10.907Z,1034.83
2019-01-03T16:39:10.963Z,1034.86
2019-01-03T16:40:11.015Z,1034.84
2019-01-03T16:41:11.095Z,1034.81
2019-01-03T16:42:11.171Z,1034.81
2019-01-03T16:43:11.435Z,1034.81
2019-01-03T16:44:11.251Z,1034.80
2019-01-03T16:45:11.335Z,1034.78
2019-01-03T16:46:11.371Z,1034.78
2019-01-03T16:47:11.431Z,1034.81
2019-01-03T16:48:11.503Z,1034.81
2019-01-03T16:49:11.561Z,1034.82
2019-01-03T16:50:11.684Z,1034.82
2019-01-03T16:51:11.671Z,1034.81
2019-01-03T16:52:11.735Z,1034.80
2019-01-03T16:53:11.800Z,1034.83
2019-01-03T16:54:11.860Z,1034.79
2019-01-03T16:55:11.913Z,1034.86
2019-01-03T16:56:11.971Z,1034.86
2019-01-03T16:57:12.031Z,1034.93
2019-01-03T16:58:12.115Z,1034.92
2019-01-03T16:59:12.148Z,1034.90
2019-01-03T17:00:12.212Z,1034.91
2019-01-03T17:01:12.576Z,1034.91
2019-01-03T17:02:12.332Z,1034.94
2019-01-03T17:03:12.393Z,1034.95
2019-01-03T17:04:12.456Z,1034.91
2019-01-03T17:05:12.508Z,1034.91
2019-01-03T17:06:12.572Z,1034.94
2019-01-03T17:07:12.628Z,1034.90
2019-01-03T17:08:12.704Z,1034.89
2019-01-03T17:09:12.756Z,1034.87
2019-01-03T17:10:12.816Z,1034.89
2019-01-03T17:11:12.877Z,1034.90
2019-01-03T17:12:12.929Z,1034.87
2019-01-03T17:13:12.997Z,1034.89
2019-01-03T17:14:13.056Z,1034.86
2019-01-03T17:15:13.109Z,1034.84
2019-01-03T17:16:13.169Z,1034.85
2019-01-03T17:17:13.229Z,1034.87
2019-01-03T17:18:13.533Z,1034.90
2019-01-03T17:19:13.349Z,1034.91
2019-01-03T17:20:13.409Z,1034.91
2019-01-03T17:21:13.476Z,1034.97
2019-01-03T17:22:13.536Z,1034.96
2019-01-03T17:23:13.597Z,1034.92
2019-01-03T17:24:13.658Z,1034.97
2019-01-03T17:25:13.709Z,1034.94
2019-01-03T17:26:13.775Z,1034.95
2019-01-03T17:27:13.830Z,1034.95
2019-01-03T17:28:13.901Z,1034.89
2019-01-03T17:29:13.957Z,1034.89
2019-01-03T17:30:14.053Z,1034.97
2019-01-03T17:31:14.069Z,1034.95
2019-01-03T17:32:14.147Z,1035.01
2019-01-03T17:33:14.298Z,1035.01
2019-01-03T17:34:14.372Z,1034.97
2019-01-03T17:35:14.312Z,1034.98
2019-01-03T17:36:14.371Z,1035.03
2019-01-03T17:37:14.438Z,1035.02
2019-01-03T17:38:14.489Z,1035.00
2019-01-03T17:39:14.559Z,1035.03
2019-01-03T17:40:14.618Z,1035.02
2019-01-03T17:41:14.670Z,1035.01
2019-01-03T17:42:14.734Z,1034.96
2019-01-03T17:43:14.794Z,1034.95
2019-01-03T17:44:14.886Z,1035.00
2019-01-03T17:45:14.920Z,1035.05
2019-01-03T17:46:14.974Z,1035.07
2019-01-03T17:47:15.030Z,1035.07
2019-01-03T17:48:15.090Z,1035.08
2019-01-03T17:49:15.338Z,1035.06
2019-01-03T17:50:15.211Z,1035.08
2019-01-03T17:51:15.274Z,1035.06
2019-01-03T17:52:15.331Z,1035.08
2019-01-03T17:53:15.392Z,1035.09
2019-01-03T17:54:15.460Z,1035.10
2019-01-03T17:55:15.524Z,1035.13
2019-01-03T17:56:15.587Z,1035.08
2019-01-03T17:57:15.639Z,1035.12
2019-01-03T17:58:16.051Z,1035.08
2019-01-03T17:59:15.759Z,1035.12
2019-01-03T18:00:15.815Z,1035.11
2019-01-03T18:01:15.872Z,1035.12
2019-01-03T18:02:15.935Z,1035.10
2019-01-03T18:03:15.992Z,1035.11
2019-01-03T18:04:16.059Z,1035.09
2019-01-03T18:05:16.122Z,1035.11
2019-01-03T18:06:16.171Z,1035.08
2019-01-03T18:07:16.229Z,1035.05
2019-01-03T18:08:16.291Z,1034.99
2019-01-03T18:09:16.360Z,1034.98
2019-01-03T18:10:16.419Z,1034.96
2019-01-03T18:11:16.472Z,1034.98
2019-01-03T18:12:16.532Z,1034.90
2019-01-03T18:13:16.592Z,1034.93
2019-01-03T18:14:16.664Z,1034.90
2019-01-03T18:15:16.725Z,1034.87
2019-01-03T18:16:16.772Z,1034.85
2019-01-03T18:17:16.832Z,1034.86
2019-01-03T18:18:17.705Z,1034.89
2019-01-03T18:19:16.972Z,1034.83
2019-01-03T18:20:17.024Z,1034.88
2019-01-03T18:21:17.075Z,1034.86
2019-01-03T18:22:17.132Z,1034.91
2019-01-03T18:23:17.195Z,1034.89
2019-01-03T18:24:17.369Z,1034.95
2019-01-03T18:25:17.353Z,1034.93
2019-01-03T18:26:17.620Z,1034.95
2019-01-03T18:27:17.433Z,1034.98
2019-01-03T18:28:17.493Z,1034.93
2019-01-03T18:29:17.560Z,1034.91
2019-01-03T18:30:17.621Z,1034.96
2019-01-03T18:31:17.675Z,1035.01
2019-01-03T18:32:17.741Z,1035.01
2019-01-03T18:33:17.793Z,1035.03
2019-01-03T18:34:17.861Z,1035.03
2019-01-03T18:35:17.922Z,1035.03
2019-01-03T18:36:17.973Z,1035.02
2019-01-03T18:37:18.034Z,1035.05
2019-01-03T18:38:18.093Z,1035.05
2019-01-03T18:39:18.177Z,1035.06
2019-01-03T18:40:18.213Z,1035.08
2019-01-03T18:41:18.830Z,1035.04
2019-01-03T18:42:18.338Z,1035.01
2019-01-03T18:43:18.393Z,1035.00
2019-01-03T18:44:18.463Z,1034.97
2019-01-03T18:45:18.572Z,1035.03
2019-01-03T18:46:18.574Z,1035.06
2019-01-03T18:47:18.630Z,1035.01
2019-01-03T18:48:18.697Z,1035.07
2019-01-03T18:49:18.866Z,1035.11
2019-01-03T18:50:19.190Z,1035.09
2019-01-03T18:51:18.922Z,1035.09
2019-01-03T18:52:18.933Z,1035.07
2019-01-03T18:53:18.993Z,1035.08
2019-01-03T18:54:19.061Z,1035.02
2019-01-03T18:55:19.122Z,1035.03
2019-01-03T18:56:19.178Z,1035.01
2019-01-03T18:57:19.242Z,1034.98
2019-01-03T18:58:19.294Z,1035.00
2019-01-03T18:59:19.362Z,1034.96
2019-01-03T19:00:19.424Z,1034.98
2019-01-03T19:01:19.474Z,1034.98
2019-01-03T19:02:19.538Z,1035.01
2019-01-03T19:03:19.595Z,1035.04
2019-01-03T19:04:19.658Z,1035.05
2019-01-03T19:05:19.722Z,1035.13
2019-01-03T19:06:19.778Z,1035.17
2019-01-03T19:07:19.830Z,1035.10
2019-01-03T19:08:19.891Z,1035.08
2019-01-03T19:09:19.959Z,1035.05
2019-01-03T19:10:20.015Z,1035.10
2019-01-03T19:11:20.071Z,1035.09
2019-01-03T19:12:20.130Z,1035.07
2019-01-03T19:13:20.203Z,1035.05
2019-01-03T19:14:20.251Z,1035.04
2019-01-03T19:15:20.343Z,1035.03
2019-01-03T19:16:20.380Z,1035.04
2019-01-03T19:17:20.431Z,1035.06
2019-01-03T19:18:20.491Z,1035.07
2019-01-03T19:19:20.551Z,1035.12
2019-01-03T19:20:20.623Z,1035.12
2019-01-03T19:21:20.679Z,1035.13
2019-01-03T19:22:20.731Z,1035.10
2019-01-03T19:23:20.793Z,1035.08
2019-01-03T19:24:20.851Z,1035.08
2019-01-03T19:25:21.464Z,1035.10
2019-01-03T19:26:20.983Z,1035.12
2019-01-03T19:27:21.028Z,1035.11
2019-01-03T19:28:21.087Z,1035.12
2019-01-03T19:29:21.152Z,1035.12
2019-01-03T19:30:21.211Z,1035.10
2019-01-03T19:31:21.311Z,1035.09
2019-01-03T19:32:21.334Z,1035.12
2019-01-03T19:33:21.388Z,1035.12
2019-01-03T19:34:22.124Z,1035.17
2019-01-03T19:35:21.512Z,1035.16
2019-01-03T19:36:21.576Z,1035.18
2019-01-03T19:37:21.635Z,1035.19
2019-01-03T19:38:21.723Z,1035.20
2019-01-03T19:39:21.756Z,1035.18
2019-01-03T19:40:21.807Z,1035.24
2019-01-03T19:41:21.877Z,1035.27
2019-01-03T19:42:21.937Z,1035.29
2019-01-03T19:43:21.988Z,1035.30
2019-01-03T19:44:22.056Z,1035.33
2019-01-03T19:45:22.108Z,1035.32
2019-01-03T19:46:22.192Z,1035.32
2019-01-03T19:47:22.225Z,1035.31
2019-01-03T19:48:22.285Z,1035.32
2019-01-03T19:49:22.349Z,1035.31
2019-01-03T19:50:22.405Z,1035.32
2019-01-03T19:51:22.477Z,1035.25
2019-01-03T19:52:22.537Z,1035.24
2019-01-03T19:53:22.585Z,1035.22
2019-01-03T19:54:22.649Z,1035.22
2019-01-03T19:55:22.705Z,1035.22
2019-01-03T19:56:22.773Z,1035.26
2019-01-03T19:57:22.837Z,1035.27
2019-01-03T19:58:22.885Z,1035.23
2019-01-03T19:59:22.949Z,1035.29
2019-01-03T20:00:23.005Z,1035.27
2019-01-03T20:01:23.097Z,1035.30
2019-01-03T20:02:23.133Z,1035.32
2019-01-03T20:03:23.185Z,1035.34
2019-01-03T20:04:23.245Z,1035.33
2019-01-03T20:05:23.305Z,1035.37
2019-01-03T20:06:23.385Z,1035.34
2019-01-03T20:07:23.458Z,1035.38
2019-01-03T20:08:23.481Z,1035.39
2019-01-03T20:09:23.541Z,1035.41
2019-01-03T20:10:23.602Z,1035.39
2019-01-03T20:11:23.673Z,1035.38
2019-01-03T20:12:23.739Z,1035.41
2019-01-03T20:13:23.786Z,1035.37
2019-01-03T20:14:23.845Z,1035.38
2019-01-03T20:15:23.902Z,1035.39
2019-01-03T20:16:23.983Z,1035.33
2019-01-03T20:17:24.030Z,1035.38
2019-01-03T20:18:24.084Z,1035.34
2019-01-03T20:19:24.142Z,1035.34
2019-01-03T20:20:24.207Z,1035.32
2019-01-03T20:21:24.351Z,1035.31
2019-01-03T20:22:24.318Z,1035.32
2019-01-03T20:23:24.382Z,1035.33
2019-01-03T20:24:24.443Z,1035.35
2019-01-03T20:25:24.505Z,1035.30
2019-01-03T20:26:24.566Z,1035.32
2019-01-03T20:27:24.628Z,1035.33
2019-01-03T20:28:24.686Z,1035.34
2019-01-03T20:29:24.739Z,1035.33
2019-01-03T20:30:24.803Z,1035.36
2019-01-03T20:31:24.863Z,1035.32
2019-01-03T20:32:24.923Z,1035.29
2019-01-03T20:33:24.979Z,1035.30
2019-01-03T20:34:25.031Z,1035.30
2019-01-03T20:35:25.094Z,1035.30
2019-01-03T20:36:25.257Z,1035.35
2019-01-03T20:37:25.215Z,1035.33
2019-01-03T20:38:25.303Z,1035.38
2019-01-03T20:39:25.335Z,1035.37
2019-01-03T20:40:25.399Z,1035.41
2019-01-03T20:41:25.463Z,1035.39
2019-01-03T20:42:25.523Z,1035.42
2019-01-03T20:43:25.571Z,1035.41
2019-01-03T20:44:25.631Z,1035.37
2019-01-03T20:45:25.691Z,1035.34
2019-01-03T20:46:25.763Z,1035.28
2019-01-03T20:47:25.820Z,1035.30
2019-01-03T20:48:26.714Z,1035.31
2019-01-03T20:49:25.931Z,1035.33
2019-01-03T20:50:25.996Z,1035.30
2019-01-03T20:51:26.056Z,1035.32
2019-01-03T20:52:26.116Z,1035.30
2019-01-03T20:53:26.171Z,1035.29
2019-01-03T20:54:26.228Z,1035.27
2019-01-03T20:55:26.288Z,1035.25
2019-01-03T20:56:26.428Z,1035.19
2019-01-03T20:57:26.409Z,1035.17
2019-01-03T20:58:26.470Z,1035.19
2019-01-03T20:59:26.528Z,1035.18
2019-01-03T21:00:26.589Z,1035.13
2019-01-03T21:01:26.656Z,1035.13
2019-01-03T21:02:26.720Z,1035.15
2019-01-03T21:03:26.765Z,1035.16
2019-01-03T21:04:26.828Z,1035.15
2019-01-03T21:05:26.886Z,1035.13
2019-01-03T21:06:26.953Z,1035.09
2019-01-03T21:07:27.066Z,1035.12
2019-01-03T21:08:27.065Z,1035.11
2019-01-03T21:09:27.125Z,1035.10
2019-01-03T21:10:27.201Z,1035.10
2019-01-03T21:11:27.249Z,1035.09
2019-01-03T21:12:27.409Z,1035.14
2019-01-03T21:13:27.361Z,1035.13
2019-01-03T21:14:27.443Z,1035.09
2019-01-03T21:15:27.481Z,1035.10
2019-01-03T21:16:27.541Z,1035.06
2019-01-03T21:17:27.609Z,1035.07
2019-01-03T21:18:27.678Z,1035.08
2019-01-03T21:19:27.717Z,1035.07
2019-01-03T21:20:27.777Z,1035.11
2019-01-03T21:21:27.837Z,1035.06
2019-01-03T21:22:27.905Z,1035.09
2019-01-03T21:23:27.965Z,1035.06
2019-01-03T21:24:28.022Z,1035.05
2019-01-03T21:25:28.082Z,1035.06
2019-01-03T21:26:28.138Z,1035.05
2019-01-03T21:27:28.418Z,1035.05
2019-01-03T21:28:28.257Z,1035.06
2019-01-03T21:29:28.314Z,1035.08
2019-01-03T21:30:28.374Z,1035.07
2019-01-03T21:31:28.434Z,1035.12
2019-01-03T21:32:28.530Z,1035.11
2019-01-03T21:33:28.638Z,1035.13
2019-01-03T21:34:28.610Z,1035.12
2019-01-03T21:35:28.697Z,1035.13
2019-01-03T21:36:28.735Z,1035.13
2019-01-03T21:37:28.793Z,1035.12
2019-01-03T21:38:28.858Z,1035.17
2019-01-03T21:39:28.914Z,1035.19
